Time;durP1;ratioP1;P1;durP2;ratioP2;P2;SDS_P1;SDS_P2;PMS_P1;PMS_P2;Temp;Humidity;BMP_temperature;BMP_pressure;BME280_temperature;BME280_humidity;BME280_pressure;Samples;Min_cycle;Max_cycle;Signal;HPM_P1;HPM_P2
2023/10/03 00:00:56;;;;;;;0.10;0.10;;;15.70;99.90;;;;;;4960723;28;20232;-81
2023/10/03 00:03:21;;;;;;;0.10;0.10;;;15.50;99.90;;;;;;4961955;28;20271;-81
2023/10/03 00:05:51;;;;;;;0.10;0.10;;;15.30;99.90;;;;;;4960751;28;20173;-81
2023/10/03 00:08:17;;;;;;;0.10;0.10;;;15.30;99.90;;;;;;4961690;28;20185;-81
2023/10/03 00:10:45;;;;;;;0.10;0.10;;;15.30;99.90;;;;;;4963843;28;20215;-81
2023/10/03 00:13:12;;;;;;;0.10;0.10;;;15.40;99.90;;;;;;4960496;28;20195;-81
2023/10/03 00:15:48;;;;;;;0.10;0.10;;;15.40;99.90;;;;;;4976070;28;20192;-81
2023/10/03 00:18:14;;;;;;;0.10;0.10;;;15.50;99.90;;;;;;4963028;28;20185;-81
2023/10/03 00:20:41;;;;;;;0.10;0.10;;;15.60;99.90;;;;;;4962435;28;20204;-81
2023/10/03 00:23:07;;;;;;;0.10;0.10;;;15.60;99.90;;;;;;4962053;28;20254;-81
2023/10/03 00:25:34;;;;;;;0.10;0.10;;;15.50;99.90;;;;;;4961089;28;20196;-81
2023/10/03 00:28:00;;;;;;;0.10;0.10;;;15.40;99.90;;;;;;4959398;28;20188;-81
2023/10/03 00:30:28;;;;;;;0.10;0.10;;;15.40;99.90;;;;;;4960959;28;20184;-81
2023/10/03 00:32:58;;;;;;;0.10;0.10;;;15.40;99.90;;;;;;4977481;28;20184;-81
2023/10/03 00:35:26;;;;;;;0.10;0.10;;;15.30;99.90;;;;;;4959531;28;20196;-81
2023/10/03 00:37:53;;;;;;;0.10;0.10;;;15.30;99.90;;;;;;4962118;28;20193;-81
2023/10/03 00:42:54;;;;;;;0.10;0.10;;;15.30;99.90;;;;;;4962282;28;20200;-81
2023/10/03 00:45:24;;;;;;;0.00;0.00;;;15.30;99.90;;;;;;4960217;28;20405;-81
2023/10/03 00:47:52;;;;;;;0.07;0.07;;;15.30;99.90;;;;;;4960478;28;20279;-81
2023/10/03 00:50:23;;;;;;;0.10;0.10;;;15.30;99.90;;;;;;4959574;28;22198;-81
2023/10/03 00:52:53;;;;;;;0.10;0.10;;;15.30;99.90;;;;;;4959653;28;20192;-81
2023/10/03 00:55:19;;;;;;;0.10;0.10;;;15.30;99.90;;;;;;4959503;28;20185;-81
2023/10/03 00:57:44;;;;;;;0.10;0.10;;;15.30;99.90;;;;;;4962095;28;20192;-81
2023/10/03 01:00:17;;;;;;;0.10;0.10;;;15.30;99.90;;;;;;4959514;28;20212;-81
2023/10/03 01:02:47;;;;;;;0.10;0.10;;;15.20;99.90;;;;;;4959175;28;20324;-81
2023/10/03 01:05:15;;;;;;;0.10;0.10;;;15.20;99.90;;;;;;4961578;28;20177;-81
2023/10/03 01:07:45;;;;;;;0.10;0.10;;;15.10;99.90;;;;;;4962695;28;20337;-81
2023/10/03 01:10:13;;;;;;;0.10;0.10;;;15.10;99.90;;;;;;4960775;28;20214;-81
2023/10/03 01:12:38;;;;;;;0.10;0.10;;;15.10;99.90;;;;;;4960170;28;20208;-81
2023/10/03 01:15:12;;;;;;;0.10;0.10;;;14.90;99.90;;;;;;4959203;28;20310;-81
2023/10/03 01:17:38;;;;;;;0.10;0.10;;;14.80;99.90;;;;;;4960272;28;20656;-81
2023/10/03 01:20:10;;;;;;;0.00;0.00;;;14.80;99.90;;;;;;4960236;28;20204;-81
2023/10/03 01:22:39;;;;;;;0.10;0.10;;;14.90;99.90;;;;;;4961272;28;20284;-81
2023/10/03 01:25:06;;;;;;;0.10;0.10;;;15.00;99.90;;;;;;4961111;28;20295;-81
2023/10/03 01:27:32;;;;;;;0.10;0.10;;;15.00;99.90;;;;;;4958460;28;20239;-81
2023/10/03 01:29:57;;;;;;;0.10;0.10;;;15.10;99.90;;;;;;4959821;28;20675;-81
2023/10/03 01:32:29;;;;;;;0.10;0.10;;;15.10;99.90;;;;;;4959713;28;20216;-81
2023/10/03 01:34:56;;;;;;;0.10;0.10;;;15.00;99.90;;;;;;4959796;28;20188;-81
2023/10/03 01:37:21;;;;;;;0.10;0.10;;;14.70;99.90;;;;;;4957750;28;20211;-81
2023/10/03 01:39:47;;;;;;;0.10;0.10;;;14.50;99.90;;;;;;4961506;28;20197;-81
2023/10/03 01:42:13;;;;;;;0.10;0.10;;;14.40;99.90;;;;;;4958342;28;20700;-81
2023/10/03 01:44:38;;;;;;;0.10;0.10;;;14.30;99.90;;;;;;4959374;28;20195;-80
2023/10/03 01:47:04;;;;;;;0.10;0.10;;;14.40;99.90;;;;;;4959621;28;20189;-81
2023/10/03 01:49:29;;;;;;;0.10;0.10;;;14.50;99.90;;;;;;4961642;28;20676;-81
2023/10/03 01:51:55;;;;;;;0.10;0.10;;;14.40;99.90;;;;;;4960688;28;20216;-81
2023/10/03 01:54:20;;;;;;;0.10;0.10;;;14.40;99.90;;;;;;4960457;28;20660;-81
2023/10/03 01:56:46;;;;;;;0.10;0.10;;;14.50;99.90;;;;;;4957885;28;20223;-81
2023/10/03 01:59:11;;;;;;;0.10;0.10;;;14.50;99.90;;;;;;4959131;28;20282;-81
2023/10/03 02:01:37;;;;;;;0.10;0.10;;;14.40;99.90;;;;;;4958458;28;20366;-80
2023/10/03 02:04:03;;;;;;;0.10;0.10;;;14.30;99.90;;;;;;4961321;28;20210;-81
2023/10/03 02:06:29;;;;;;;0.10;0.10;;;14.30;99.90;;;;;;4958642;28;20199;-81
2023/10/03 02:08:57;;;;;;;0.00;0.00;;;14.30;99.90;;;;;;4967072;28;20258;-80
2023/10/03 02:11:26;;;;;;;0.10;0.10;;;14.40;99.90;;;;;;4969246;28;20208;-79
2023/10/03 02:13:52;;;;;;;0.10;0.10;;;14.50;99.90;;;;;;4966459;28;20216;-79
2023/10/03 02:16:20;;;;;;;0.10;0.10;;;14.60;99.90;;;;;;4965699;28;20202;-79
2023/10/03 02:18:45;;;;;;;0.10;0.10;;;14.60;99.90;;;;;;4970888;28;20192;-79
2023/10/03 02:21:16;;;;;;;0.10;0.10;;;14.60;99.90;;;;;;4967005;28;20474;-79
2023/10/03 02:23:42;;;;;;;0.10;0.10;;;14.70;99.90;;;;;;4961508;28;20699;-79
2023/10/03 02:26:10;;;;;;;0.07;0.07;;;14.70;99.90;;;;;;4961341;28;20266;-79
2023/10/03 02:28:36;;;;;;;0.10;0.10;;;14.90;99.90;;;;;;4975921;28;20298;-79
2023/10/03 02:31:07;;;;;;;0.10;0.10;;;14.80;99.90;;;;;;4960965;28;20204;-79
2023/10/03 02:33:32;;;;;;;0.10;0.10;;;15.00;99.90;;;;;;4960900;28;20189;-79
2023/10/03 02:35:58;;;;;;;0.10;0.10;;;14.90;99.90;;;;;;4960727;28;20552;-79
2023/10/03 02:38:24;;;;;;;0.00;0.00;;;15.00;99.90;;;;;;4958970;28;20200;-79
2023/10/03 02:40:57;;;;;;;0.10;0.10;;;15.10;99.90;;;;;;4962256;28;20208;-79
2023/10/03 02:43:24;;;;;;;0.10;0.10;;;15.10;99.90;;;;;;4960759;28;20709;-79
2023/10/03 02:45:50;;;;;;;0.10;0.10;;;15.10;99.90;;;;;;4960705;28;20223;-79
2023/10/03 02:48:16;;;;;;;0.10;0.10;;;15.20;99.90;;;;;;4959501;28;20214;-79
2023/10/03 02:50:42;;;;;;;0.10;0.10;;;14.90;99.90;;;;;;4959033;28;20196;-79
2023/10/03 02:53:14;;;;;;;0.10;0.10;;;14.70;99.90;;;;;;4961282;28;20262;-79
2023/10/03 02:55:41;;;;;;;0.10;0.10;;;14.60;99.90;;;;;;4960925;28;20181;-79
2023/10/03 02:58:08;;;;;;;0.10;0.10;;;14.40;99.90;;;;;;4961382;28;20213;-79
2023/10/03 03:00:33;;;;;;;0.10;0.10;;;14.30;99.90;;;;;;4959497;28;20191;-79
2023/10/03 03:02:59;;;;;;;0.10;0.10;;;14.30;99.90;;;;;;4959134;28;20215;-79
2023/10/03 03:05:35;;;;;;;0.10;0.10;;;14.20;99.90;;;;;;4960092;28;20192;-79
2023/10/03 03:08:08;;;;;;;0.10;0.10;;;14.30;99.90;;;;;;4958858;28;20234;-79
2023/10/03 03:10:33;;;;;;;0.00;0.00;;;14.40;99.90;;;;;;4967480;28;20239;-80
2023/10/03 03:13:01;;;;;;;0.10;0.10;;;14.60;99.90;;;;;;4961386;28;20197;-80
2023/10/03 03:15:28;;;;;;;0.10;0.10;;;14.70;99.90;;;;;;4959075;28;20220;-79
2023/10/03 03:17:53;;;;;;;0.10;0.10;;;14.90;99.90;;;;;;4957006;28;20218;-79
2023/10/03 03:20:25;;;;;;;0.10;0.10;;;14.90;99.90;;;;;;4960451;28;20279;-80
2023/10/03 03:22:51;;;;;;;0.10;0.10;;;14.80;99.90;;;;;;4956006;28;20212;-79
2023/10/03 03:25:36;;;;;;;0.10;0.10;;;14.90;99.90;;;;;;4957694;28;20259;-79
2023/10/03 03:28:13;;;;;;;0.10;0.10;;;14.80;99.90;;;;;;4958050;28;20189;-80
2023/10/03 03:30:45;;;;;;;0.10;0.10;;;14.80;99.90;;;;;;4957071;28;20196;-82
2023/10/03 03:33:19;;;;;;;0.10;0.10;;;14.80;99.90;;;;;;4972791;28;20214;-83
2023/10/03 03:35:46;;;;;;;0.10;0.10;;;14.90;99.90;;;;;;4956912;28;20238;-80
2023/10/03 03:38:15;;;;;;;0.10;0.10;;;15.00;99.90;;;;;;4970677;28;20247;-80
2023/10/03 03:40:56;;;;;;;0.10;0.10;;;14.80;99.90;;;;;;4955912;28;20216;-80
2023/10/03 03:43:22;;;;;;;0.10;0.10;;;14.90;99.90;;;;;;4957185;28;20266;-80
2023/10/03 03:45:48;;;;;;;0.07;0.07;;;14.90;99.90;;;;;;4956907;28;20189;-80
2023/10/03 03:48:15;;;;;;;0.10;0.10;;;14.80;99.90;;;;;;4969815;28;20189;-80
2023/10/03 03:50:41;;;;;;;0.10;0.10;;;14.80;99.90;;;;;;4957499;28;20192;-80
2023/10/03 03:53:07;;;;;;;0.10;0.10;;;14.90;99.90;;;;;;4953396;28;20272;-79
2023/10/03 03:55:35;;;;;;;0.10;0.10;;;15.00;99.90;;;;;;4953901;28;20192;-80
2023/10/03 03:58:04;;;;;;;0.10;0.10;;;14.80;99.90;;;;;;4959628;28;20255;-81
2023/10/03 04:00:31;;;;;;;0.10;0.10;;;14.80;99.90;;;;;;4956912;28;20289;-81
2023/10/03 04:03:05;;;;;;;0.10;0.10;;;14.90;99.90;;;;;;4960754;28;20342;-80
2023/10/03 04:05:32;;;;;;;0.10;0.10;;;15.00;99.90;;;;;;4957446;28;20204;-80
2023/10/03 04:07:59;;;;;;;0.10;0.10;;;14.90;99.90;;;;;;4958366;28;20258;-80
2023/10/03 04:10:26;;;;;;;0.10;0.10;;;15.00;99.90;;;;;;4962758;28;20176;-80
2023/10/03 04:12:52;;;;;;;0.10;0.10;;;14.90;99.90;;;;;;4960610;28;20200;-80
2023/10/03 04:15:20;;;;;;;0.10;0.10;;;14.90;99.90;;;;;;4959951;28;20199;-80
2023/10/03 04:17:48;;;;;;;0.10;0.10;;;14.80;99.90;;;;;;4960277;28;20194;-80
2023/10/03 04:20:19;;;;;;;0.10;0.10;;;14.90;99.90;;;;;;4961077;28;20561;-83
2023/10/03 04:22:50;;;;;;;0.10;0.10;;;15.00;99.90;;;;;;4960264;28;20208;-82
2023/10/03 04:25:19;;;;;;;0.10;0.10;;;15.00;99.90;;;;;;4960365;28;20174;-82
2023/10/03 04:27:47;;;;;;;0.10;0.10;;;15.00;99.90;;;;;;4961052;28;20228;-81
2023/10/03 04:30:13;;;;;;;0.10;0.10;;;15.10;99.90;;;;;;4959903;28;20212;-81
2023/10/03 04:32:43;;;;;;;0.10;0.10;;;15.20;99.90;;;;;;4959455;28;20836;-81
2023/10/03 04:35:12;;;;;;;0.10;0.10;;;15.30;99.90;;;;;;4960747;28;20188;-81
2023/10/03 04:37:41;;;;;;;0.10;0.10;;;15.30;99.90;;;;;;4958627;28;20212;-81
2023/10/03 04:40:15;;;;;;;0.10;0.10;;;15.30;99.90;;;;;;4958792;28;20185;-81
2023/10/03 04:42:45;;;;;;;0.10;0.10;;;15.20;99.90;;;;;;4962499;28;20208;-81
2023/10/03 04:45:14;;;;;;;0.00;0.00;;;15.20;99.90;;;;;;4962010;28;20739;-81
2023/10/03 04:47:41;;;;;;;0.10;0.10;;;15.00;99.90;;;;;;4959562;28;20213;-80
2023/10/03 04:50:08;;;;;;;0.10;0.10;;;15.00;99.90;;;;;;4958907;28;20675;-81
2023/10/03 04:52:33;;;;;;;0.10;0.10;;;15.00;99.90;;;;;;4959431;28;20216;-80
2023/10/03 04:54:59;;;;;;;0.10;0.10;;;14.90;99.90;;;;;;4962199;28;20236;-80
2023/10/03 04:57:27;;;;;;;0.10;0.10;;;14.80;99.90;;;;;;4962553;28;20176;-80
2023/10/03 04:59:56;;;;;;;0.10;0.10;;;14.80;99.90;;;;;;4961469;28;20187;-80
2023/10/03 05:02:22;;;;;;;0.10;0.10;;;14.70;99.90;;;;;;4957495;28;20700;-80
2023/10/03 05:04:48;;;;;;;0.10;0.10;;;14.70;99.90;;;;;;4958605;28;20802;-80
2023/10/03 05:07:13;;;;;;;0.10;0.10;;;14.80;99.90;;;;;;4957869;28;20272;-80
2023/10/03 05:09:39;;;;;;;0.10;0.10;;;14.80;99.90;;;;;;4961499;28;20183;-81
2023/10/03 05:12:04;;;;;;;0.10;0.10;;;14.90;99.90;;;;;;4959546;28;20212;-80
2023/10/03 05:14:30;;;;;;;0.10;0.10;;;14.80;99.90;;;;;;4961246;28;20232;-81
2023/10/03 05:17:00;;;;;;;0.10;0.10;;;14.80;99.90;;;;;;4956405;28;20204;-81
2023/10/03 05:19:25;;;;;;;0.10;0.10;;;14.80;99.90;;;;;;4961610;28;20196;-81
2023/10/03 05:21:52;;;;;;;0.10;0.10;;;14.80;99.90;;;;;;4960475;28;20216;-81
2023/10/03 05:24:19;;;;;;;0.10;0.10;;;14.90;99.90;;;;;;4959272;28;20185;-81
2023/10/03 05:26:44;;;;;;;0.10;0.10;;;15.00;99.90;;;;;;4959618;28;20618;-81
2023/10/03 05:29:10;;;;;;;0.00;0.00;;;15.10;99.90;;;;;;4962899;28;20218;-82
2023/10/03 05:31:40;;;;;;;0.10;0.10;;;15.20;99.90;;;;;;4962094;28;20208;-81
2023/10/03 05:34:07;;;;;;;0.10;0.10;;;15.30;99.90;;;;;;4960718;28;20644;-80
2023/10/03 05:36:33;;;;;;;0.10;0.10;;;15.30;99.90;;;;;;4959364;28;20189;-80
2023/10/03 05:38:58;;;;;;;0.10;0.10;;;15.40;99.90;;;;;;4955404;28;20283;-80
2023/10/03 05:41:24;;;;;;;0.10;0.10;;;15.40;99.90;;;;;;4956682;28;20212;-81
2023/10/03 05:43:50;;;;;;;0.10;0.10;;;15.40;99.90;;;;;;4959940;28;20212;-81
2023/10/03 05:46:15;;;;;;;0.10;0.10;;;15.40;99.90;;;;;;4962780;28;20746;-81
2023/10/03 05:48:43;;;;;;;0.10;0.10;;;15.40;99.90;;;;;;4961495;28;20193;-81
2023/10/03 05:51:09;;;;;;;0.10;0.10;;;15.50;99.90;;;;;;4960988;28;20288;-81
2023/10/03 05:53:34;;;;;;;0.10;0.10;;;15.50;99.90;;;;;;4962532;28;20334;-81
2023/10/03 05:56:01;;;;;;;0.10;0.10;;;15.50;99.90;;;;;;4961315;28;20710;-81
2023/10/03 05:58:27;;;;;;;0.00;0.00;;;15.60;99.90;;;;;;4961082;28;20287;-81
2023/10/03 06:00:52;;;;;;;0.10;0.10;;;15.70;99.90;;;;;;4958675;28;20549;-81
2023/10/03 06:03:18;;;;;;;0.10;0.10;;;15.80;99.90;;;;;;4961167;28;20227;-82
2023/10/03 06:05:45;;;;;;;0.10;0.10;;;15.60;99.90;;;;;;4960455;28;20185;-82
2023/10/03 06:08:12;;;;;;;0.03;0.03;;;15.70;99.90;;;;;;4954667;28;20191;-82
2023/10/03 06:10:41;;;;;;;0.10;0.10;;;15.80;99.90;;;;;;4958959;28;20196;-82
2023/10/03 06:13:10;;;;;;;0.10;0.10;;;15.90;99.90;;;;;;4961003;28;20181;-82
2023/10/03 06:15:40;;;;;;;0.10;0.10;;;15.90;99.90;;;;;;4960272;28;20638;-82
2023/10/03 06:18:05;;;;;;;0.10;0.10;;;16.00;99.90;;;;;;4960838;28;20180;-82
2023/10/03 06:20:31;;;;;;;0.10;0.10;;;16.00;99.90;;;;;;4961132;28;20593;-81
2023/10/03 06:22:57;;;;;;;0.10;0.10;;;16.10;99.90;;;;;;4958762;28;20568;-82
2023/10/03 06:25:24;;;;;;;0.10;0.10;;;16.20;99.90;;;;;;4957864;28;20192;-82
2023/10/03 06:27:49;;;;;;;0.10;0.10;;;16.20;99.90;;;;;;4958336;28;20231;-82
2023/10/03 06:30:15;;;;;;;0.03;0.03;;;16.30;99.90;;;;;;4960629;28;20215;-81
2023/10/03 06:32:41;;;;;;;0.10;0.10;;;16.40;99.90;;;;;;4957261;28;20290;-82
2023/10/03 06:35:09;;;;;;;0.10;0.10;;;16.40;99.90;;;;;;4954010;28;20200;-81
2023/10/03 06:37:35;;;;;;;0.10;0.10;;;16.50;99.90;;;;;;4958042;28;20700;-81
2023/10/03 06:40:07;;;;;;;0.10;0.10;;;16.50;99.90;;;;;;4958036;28;20330;-82
2023/10/03 06:42:34;;;;;;;0.10;0.10;;;16.40;99.90;;;;;;4957380;28;20670;-82
2023/10/03 06:45:00;;;;;;;0.10;0.10;;;16.60;99.90;;;;;;4958443;28;20203;-81
2023/10/03 06:47:26;;;;;;;0.10;0.10;;;16.60;99.90;;;;;;4964453;28;20191;-82
2023/10/03 06:49:51;;;;;;;0.10;0.10;;;16.70;99.90;;;;;;4959887;28;20196;-82
2023/10/03 06:52:17;;;;;;;0.10;0.10;;;16.70;99.90;;;;;;4958888;28;20955;-82
2023/10/03 06:54:43;;;;;;;0.10;0.10;;;16.70;99.90;;;;;;4958748;28;20197;-82
2023/10/03 06:57:10;;;;;;;0.10;0.10;;;16.80;99.90;;;;;;4959986;28;20185;-81
2023/10/03 06:59:36;;;;;;;0.10;0.10;;;16.90;99.90;;;;;;4957793;28;20189;-82
2023/10/03 07:02:03;;;;;;;0.10;0.10;;;16.90;99.90;;;;;;4961038;28;20217;-81
2023/10/03 07:04:29;;;;;;;0.10;0.10;;;16.90;99.90;;;;;;4959450;28;20196;-81
2023/10/03 07:06:54;;;;;;;0.10;0.10;;;16.80;99.90;;;;;;4961606;28;20188;-81
2023/10/03 07:09:20;;;;;;;0.10;0.10;;;16.70;99.90;;;;;;4960470;28;20284;-82
2023/10/03 07:11:49;;;;;;;0.10;0.10;;;16.70;99.90;;;;;;4959621;28;20689;-82
2023/10/03 07:14:16;;;;;;;0.10;0.10;;;16.70;99.90;;;;;;4958936;28;20194;-81
2023/10/03 07:16:42;;;;;;;0.10;0.10;;;16.80;99.90;;;;;;4960015;28;20203;-81
2023/10/03 07:19:14;;;;;;;0.10;0.10;;;16.90;99.90;;;;;;4953113;28;20673;-82
2023/10/03 07:21:40;;;;;;;0.10;0.10;;;17.00;99.90;;;;;;4959622;28;20295;-81
2023/10/03 07:24:05;;;;;;;0.10;0.10;;;17.20;99.90;;;;;;4959896;28;20346;-81
2023/10/03 07:26:32;;;;;;;0.10;0.10;;;17.40;99.90;;;;;;4961640;28;20270;-81
2023/10/03 07:28:59;;;;;;;0.10;0.10;;;17.50;99.90;;;;;;4960438;28;20195;-81
2023/10/03 07:31:25;;;;;;;0.10;0.10;;;17.70;99.90;;;;;;4957980;28;20301;-81
2023/10/03 07:33:52;;;;;;;0.10;0.10;;;17.80;99.90;;;;;;4959912;28;21210;-81
2023/10/03 07:36:18;;;;;;;0.10;0.10;;;17.90;99.90;;;;;;4960302;28;20180;-81
2023/10/03 07:38:45;;;;;;;0.10;0.10;;;18.00;99.90;;;;;;4961568;28;20260;-82
2023/10/03 07:41:13;;;;;;;0.10;0.10;;;18.00;99.90;;;;;;4953654;28;20653;-82
2023/10/03 07:43:45;;;;;;;0.10;0.10;;;18.20;99.90;;;;;;4962337;28;20219;-81
2023/10/03 07:46:11;;;;;;;0.10;0.10;;;18.40;99.90;;;;;;4977953;28;20177;-81
2023/10/03 07:48:37;;;;;;;0.10;0.10;;;18.50;99.90;;;;;;4965336;28;20251;-81
2023/10/03 07:51:05;;;;;;;0.10;0.10;;;18.50;99.90;;;;;;4964204;28;20207;-82
2023/10/03 07:53:31;;;;;;;0.10;0.10;;;18.70;99.90;;;;;;4965482;28;20193;-80
2023/10/03 07:55:57;;;;;;;0.10;0.10;;;18.70;99.90;;;;;;4962663;28;20200;-81
2023/10/03 07:58:22;;;;;;;0.10;0.10;;;18.70;99.90;;;;;;4963413;28;20296;-80
2023/10/03 08:00:50;;;;;;;0.10;0.10;;;19.00;99.90;;;;;;4961467;28;20208;-80
2023/10/03 08:03:15;;;;;;;0.10;0.10;;;19.30;99.90;;;;;;4958394;28;20229;-80
2023/10/03 08:05:41;;;;;;;0.10;0.10;;;19.50;99.90;;;;;;4960738;28;20223;-81
2023/10/03 08:08:07;;;;;;;0.10;0.10;;;19.40;99.90;;;;;;4959909;28;20191;-80
2023/10/03 08:10:33;;;;;;;0.10;0.10;;;19.20;99.90;;;;;;4958662;28;20195;-81
2023/10/03 08:12:59;;;;;;;0.10;0.10;;;19.10;99.90;;;;;;4961529;28;20192;-81
2023/10/03 08:15:31;;;;;;;0.10;0.10;;;19.10;99.90;;;;;;4958933;28;20229;-80
2023/10/03 08:17:58;;;;;;;0.10;0.10;;;19.10;99.90;;;;;;4960490;28;20177;-80
2023/10/03 08:20:25;;;;;;;0.10;0.10;;;19.10;99.90;;;;;;4959076;28;20220;-80
2023/10/03 08:22:52;;;;;;;0.10;0.10;;;19.20;99.90;;;;;;4960357;28;20279;-80
2023/10/03 08:25:27;;;;;;;0.10;0.10;;;19.20;99.90;;;;;;4960821;28;20179;-80
2023/10/03 08:27:55;;;;;;;0.10;0.10;;;19.20;99.90;;;;;;4958711;28;20183;-80
2023/10/03 08:30:30;;;;;;;0.10;0.10;;;19.20;99.90;;;;;;4964228;28;20236;-80
2023/10/03 08:32:58;;;;;;;0.10;0.10;;;19.20;99.90;;;;;;4961505;28;20176;-80
2023/10/03 08:35:37;;;;;;;0.10;0.10;;;19.20;99.90;;;;;;4958928;28;20336;-80
2023/10/03 08:38:12;;;;;;;0.10;0.10;;;19.10;99.90;;;;;;4963480;28;20256;-81
2023/10/03 08:40:39;;;;;;;0.10;0.10;;;19.10;99.90;;;;;;4967742;28;20184;-80
2023/10/03 08:43:09;;;;;;;0.10;0.10;;;19.10;99.90;;;;;;4983169;28;20189;-81
2023/10/03 08:45:43;;;;;;;0.10;0.10;;;19.10;99.90;;;;;;4970613;28;20319;-81
2023/10/03 08:48:10;;;;;;;0.10;0.10;;;19.10;99.90;;;;;;4964647;28;20180;-80
2023/10/03 08:50:52;;;;;;;0.10;0.10;;;19.20;99.90;;;;;;4963133;28;20193;-81
2023/10/03 08:53:27;;;;;;;0.10;0.10;;;19.30;99.90;;;;;;4961631;28;20243;-81
2023/10/03 08:55:58;;;;;;;0.10;0.10;;;19.30;99.90;;;;;;4960249;28;20204;-80
2023/10/03 08:58:25;;;;;;;0.10;0.10;;;19.40;99.90;;;;;;4962317;28;20189;-81
2023/10/03 09:00:58;;;;;;;0.10;0.10;;;19.50;99.90;;;;;;4966371;28;20214;-81
2023/10/03 09:03:25;;;;;;;0.10;0.10;;;19.60;99.90;;;;;;4965317;28;20219;-81
2023/10/03 09:05:51;;;;;;;0.10;0.10;;;19.80;99.90;;;;;;4962785;28;20193;-81
2023/10/03 09:08:17;;;;;;;0.10;0.10;;;20.00;99.90;;;;;;4960042;28;20184;-81
2023/10/03 09:10:52;;;;;;;0.10;0.10;;;20.10;99.90;;;;;;4961737;28;20756;-81
2023/10/03 09:13:25;;;;;;;0.10;0.10;;;20.30;99.90;;;;;;4959853;28;20322;-81
2023/10/03 09:15:59;;;;;;;0.10;0.10;;;20.40;99.90;;;;;;4964716;28;20192;-81
2023/10/03 09:18:28;;;;;;;0.10;0.10;;;20.50;99.90;;;;;;4962124;28;20336;-81
2023/10/03 09:20:59;;;;;;;0.10;0.10;;;20.60;99.90;;;;;;4962626;28;20204;-80
2023/10/03 09:23:27;;;;;;;0.10;0.10;;;20.70;99.90;;;;;;4963899;28;20193;-81
2023/10/03 09:25:56;;;;;;;0.10;0.10;;;20.70;99.90;;;;;;4960000;28;20191;-81
2023/10/03 09:28:27;;;;;;;0.10;0.10;;;20.90;99.90;;;;;;4960570;28;20176;-81
2023/10/03 09:30:55;;;;;;;0.10;0.10;;;21.00;99.90;;;;;;4978104;28;20204;-81
2023/10/03 09:33:22;;;;;;;0.10;0.10;;;21.10;99.90;;;;;;4961509;28;20185;-80
2023/10/03 09:36:03;;;;;;;0.10;0.10;;;21.20;99.90;;;;;;4960881;28;20574;-81
2023/10/03 09:38:45;;;;;;;0.10;0.10;;;21.30;99.90;;;;;;4960191;28;20671;-81
2023/10/03 09:41:17;;;;;;;0.10;0.10;;;21.30;99.90;;;;;;4958651;28;20212;-81
2023/10/03 09:43:53;;;;;;;0.10;0.10;;;21.50;99.90;;;;;;4974058;28;20211;-81
2023/10/03 09:46:23;;;;;;;0.10;0.10;;;21.60;99.90;;;;;;4961573;28;20188;-80
2023/10/03 09:48:53;;;;;;;0.10;0.10;;;21.90;99.90;;;;;;4961162;28;20181;-81
2023/10/03 09:51:36;;;;;;;0.10;0.10;;;22.00;99.90;;;;;;4960499;28;20580;-81
2023/10/03 09:54:07;;;;;;;0.10;0.10;;;22.00;99.90;;;;;;4959343;28;20198;-81
2023/10/03 09:56:36;;;;;;;0.10;0.10;;;22.10;99.90;;;;;;4961130;28;20196;-81
2023/10/03 09:59:05;;;;;;;3.43;3.33;;;22.20;99.90;;;;;;4957949;28;20845;-81
2023/10/03 10:01:33;;;;;;;0.10;0.10;;;22.30;99.90;;;;;;4962500;28;20212;-81
2023/10/03 10:04:00;;;;;;;0.10;0.10;;;22.40;99.90;;;;;;4958104;28;20830;-81
2023/10/03 10:06:37;;;;;;;0.10;0.10;;;22.60;99.90;;;;;;4962723;28;20189;-81
2023/10/03 10:09:23;;;;;;;0.10;0.10;;;22.70;99.90;;;;;;4957318;28;20204;-82
2023/10/03 10:12:11;;;;;;;0.10;0.10;;;22.90;99.90;;;;;;4960070;28;20209;-81
2023/10/03 10:15:01;;;;;;;0.10;0.10;;;22.80;99.90;;;;;;4957968;28;20197;-81
2023/10/03 10:17:49;;;;;;;0.10;0.10;;;23.00;99.90;;;;;;4966747;28;20196;-81
2023/10/03 10:20:38;;;;;;;0.10;0.10;;;23.00;99.90;;;;;;4977726;28;20192;-83
2023/10/03 10:23:13;;;;;;;0.10;0.10;;;23.40;99.90;;;;;;4959599;28;20300;-81
2023/10/03 10:25:50;;;;;;;0.10;0.10;;;23.80;99.90;;;;;;4957837;28;20233;-82
2023/10/03 10:28:24;;;;;;;0.10;0.10;;;24.00;99.90;;;;;;4960398;28;20208;-82
2023/10/03 10:31:16;;;;;;;0.10;0.10;;;24.20;99.90;;;;;;4959898;28;20294;-81
2023/10/03 10:33:42;;;;;;;0.10;0.10;;;24.40;99.90;;;;;;4959961;28;20196;-82
2023/10/03 10:36:12;;;;;;;0.10;0.10;;;25.00;99.90;;;;;;4960735;28;20188;-81
2023/10/03 10:38:38;;;;;;;0.10;0.10;;;25.00;99.90;;;;;;4960359;28;20180;-81
2023/10/03 10:41:22;;;;;;;0.10;0.10;;;25.10;99.90;;;;;;4959128;28;20235;-82
2023/10/03 10:44:17;;;;;;;0.10;0.10;;;25.40;99.90;;;;;;4962790;28;20239;-82
2023/10/03 10:46:47;;;;;;;0.10;0.10;;;25.70;99.90;;;;;;4960294;28;20201;-83
2023/10/03 10:49:31;;;;;;;0.10;0.10;;;25.60;99.90;;;;;;4961310;28;20197;-82
2023/10/03 10:51:57;;;;;;;0.10;0.10;;;25.40;99.90;;;;;;4962483;28;20231;-82
2023/10/03 10:54:24;;;;;;;0.93;0.93;;;25.20;99.90;;;;;;4960645;28;20230;-82
2023/10/03 10:57:01;;;;;;;0.10;0.10;;;25.00;99.90;;;;;;4959894;28;20328;-82
2023/10/03 10:59:27;;;;;;;0.10;0.10;;;25.00;99.90;;;;;;4959534;28;20189;-82
2023/10/03 11:01:53;;;;;;;0.10;0.10;;;25.00;99.90;;;;;;4961316;28;20246;-82
2023/10/03 11:04:23;;;;;;;0.10;0.10;;;25.10;99.90;;;;;;4957207;28;20248;-82
2023/10/03 11:06:52;;;;;;;0.10;0.10;;;25.30;99.90;;;;;;4960354;28;20275;-82
2023/10/03 11:09:20;;;;;;;0.10;0.10;;;25.10;99.90;;;;;;4959148;28;20352;-81
2023/10/03 11:11:47;;;;;;;0.10;0.10;;;25.10;99.90;;;;;;4962882;28;20575;-82
2023/10/03 11:14:29;;;;;;;0.10;0.10;;;25.40;99.90;;;;;;4967564;28;20312;-82
2023/10/03 11:17:01;;;;;;;0.10;0.10;;;25.30;99.90;;;;;;4977917;28;20200;-82
2023/10/03 11:19:30;;;;;;;0.10;0.10;;;25.20;99.90;;;;;;4966428;28;20246;-82
2023/10/03 11:21:55;;;;;;;0.10;0.10;;;25.10;99.90;;;;;;4962367;28;20213;-82
2023/10/03 11:24:22;;;;;;;0.10;0.10;;;25.30;99.90;;;;;;4965912;28;20200;-82
2023/10/03 11:26:53;;;;;;;0.10;0.10;;;25.30;99.90;;;;;;4969023;28;20185;-81
2023/10/03 11:29:46;;;;;;;0.83;0.83;;;25.10;99.90;;;;;;4968213;28;20640;-82
2023/10/03 11:32:18;;;;;;;0.10;0.10;;;25.00;99.90;;;;;;4962506;28;20738;-82
2023/10/03 11:34:44;;;;;;;0.10;0.10;;;24.90;99.90;;;;;;4970785;28;20704;-81
2023/10/03 11:37:27;;;;;;;0.10;0.10;;;25.30;99.90;;;;;;4966297;28;20189;-82
2023/10/03 11:39:53;;;;;;;0.10;0.10;;;25.40;99.90;;;;;;4966086;28;20260;-81
2023/10/03 11:42:24;;;;;;;0.10;0.10;;;25.30;99.90;;;;;;4967690;28;20299;-82
2023/10/03 11:45:00;;;;;;;0.10;0.10;;;25.20;99.90;;;;;;4966487;28;20676;-82
2023/10/03 11:47:26;;;;;;;0.10;0.10;;;25.10;99.90;;;;;;4963410;28;20218;-82
2023/10/03 11:49:52;;;;;;;0.10;0.10;;;24.90;99.90;;;;;;4981629;28;20278;-82
2023/10/03 11:52:18;;;;;;;0.10;0.10;;;24.90;99.90;;;;;;4963782;28;20212;-82
2023/10/03 11:54:45;;;;;;;0.10;0.10;;;24.80;99.90;;;;;;4978474;28;20200;-83
2023/10/03 11:57:12;;;;;;;0.10;0.10;;;24.70;99.90;;;;;;4960465;28;20238;-82
2023/10/03 11:59:40;;;;;;;0.10;0.10;;;24.60;99.90;;;;;;4961465;28;20192;-82
2023/10/03 12:02:06;;;;;;;0.10;0.10;;;24.40;99.90;;;;;;4962329;28;20581;-82
2023/10/03 12:04:34;;;;;;;0.10;0.10;;;24.30;99.90;;;;;;4960487;28;20260;-82
2023/10/03 12:07:01;;;;;;;0.10;0.10;;;24.30;99.90;;;;;;4964076;28;21583;-82
2023/10/03 12:09:26;;;;;;;0.10;0.10;;;24.30;99.90;;;;;;4962697;28;20193;-82
2023/10/03 12:11:52;;;;;;;0.10;0.10;;;24.20;99.90;;;;;;4963734;28;20240;-83
2023/10/03 12:14:17;;;;;;;0.10;0.10;;;24.00;99.90;;;;;;4959212;28;20695;-82
2023/10/03 12:16:46;;;;;;;0.10;0.10;;;23.60;99.90;;;;;;4964184;28;20200;-82
2023/10/03 12:19:11;;;;;;;0.10;0.10;;;23.30;99.90;;;;;;4959346;28;20440;-84
2023/10/03 12:21:37;;;;;;;0.10;0.10;;;22.70;99.90;;;;;;4979749;28;20848;-84
2023/10/03 12:24:02;;;;;;;0.10;0.10;;;22.00;99.90;;;;;;4963358;28;20217;-83
2023/10/03 12:26:28;;;;;;;0.10;0.10;;;21.50;99.90;;;;;;4966516;28;20307;-83
2023/10/03 12:28:55;;;;;;;0.10;0.10;;;21.00;99.90;;;;;;4966444;28;20198;-83
2023/10/03 12:31:27;;;;;;;0.10;0.10;;;20.40;99.90;;;;;;4974227;28;20211;-82
2023/10/03 12:33:52;;;;;;;0.10;0.10;;;20.30;99.90;;;;;;4969091;28;20194;-82
2023/10/03 12:36:18;;;;;;;0.10;0.10;;;20.20;99.90;;;;;;4969704;28;20203;-82
2023/10/03 12:38:44;;;;;;;0.10;0.10;;;20.10;99.90;;;;;;4969543;28;20188;-82
2023/10/03 12:41:09;;;;;;;0.10;0.10;;;20.00;99.90;;;;;;4968096;28;20212;-82
2023/10/03 12:43:37;;;;;;;0.10;0.10;;;19.90;99.90;;;;;;4965540;28;20217;-82
2023/10/03 12:46:04;;;;;;;0.10;0.10;;;19.80;99.90;;;;;;4966913;28;20200;-82
2023/10/03 12:48:30;;;;;;;0.10;0.10;;;19.70;99.90;;;;;;4965211;28;20188;-82
2023/10/03 12:50:56;;;;;;;0.10;0.10;;;19.60;99.90;;;;;;4961690;28;20209;-81
2023/10/03 12:53:22;;;;;;;0.10;0.10;;;19.60;99.90;;;;;;4961227;28;20203;-82
2023/10/03 12:55:49;;;;;;;0.10;0.10;;;19.40;99.90;;;;;;4960332;28;20707;-82
2023/10/03 12:58:18;;;;;;;0.10;0.10;;;19.40;99.90;;;;;;4959488;28;20405;-82